Time;durP1;ratioP1;P1;durP2;ratioP2;P2;SDS_P1;SDS_P2;PMS_P1;PMS_P2;Temp;Humidity;BMP_temperature;BMP_pressure;BME280_temperature;BME280_humidity;BME280_pressure;Samples;Min_cycle;Max_cycle;Signal;HPM_P1;HPM_P2
2022/03/20 00:02:23;;;;;;;29.73;17.63;;;;;;;-1.46;83.65;98501.09;5023977;28;20050;-61
2022/03/20 00:04:50;;;;;;;29.27;18.33;;;;;;;-1.44;83.43;98501.78;5031540;28;20065;-62
2022/03/20 00:07:16;;;;;;;32.92;18.52;;;;;;;-1.39;83.57;98498.69;5027390;28;20041;-61
2022/03/20 00:09:44;;;;;;;31.85;18.52;;;;;;;-1.40;83.12;98496.16;5026552;28;20049;-62
2022/03/20 00:12:10;;;;;;;34.25;18.45;;;;;;;-1.46;82.88;98494.94;5027779;28;20136;-59
2022/03/20 00:14:37;;;;;;;32.53;17.63;;;;;;;-1.56;83.80;98494.97;5027237;28;20042;-62
2022/03/20 00:17:03;;;;;;;30.75;18.33;;;;;;;-1.59;83.37;98497.91;5031418;28;20049;-62
2022/03/20 00:19:31;;;;;;;37.10;19.92;;;;;;;-1.61;83.75;98492.75;5027275;28;20056;-62
2022/03/20 00:21:58;;;;;;;31.27;17.48;;;;;;;-1.67;83.62;98495.16;5026818;28;20472;-62
2022/03/20 00:24:25;;;;;;;31.08;17.92;;;;;;;-1.75;83.72;98490.56;5027057;28;20041;-60
2022/03/20 00:26:56;;;;;;;30.23;18.45;;;;;;;-1.78;84.44;98488.19;5025692;28;20038;-62
2022/03/20 00:29:30;;;;;;;30.88;18.65;;;;;;;-1.78;83.99;98486.38;5025578;28;20128;-60
2022/03/20 00:31:58;;;;;;;31.90;17.33;;;;;;;-1.83;83.74;98486.81;5025368;28;20092;-62
2022/03/20 00:34:24;;;;;;;28.83;16.08;;;;;;;-1.74;83.99;98493.09;5027389;28;20049;-62
2022/03/20 00:36:51;;;;;;;33.30;19.40;;;;;;;-1.77;83.89;98479.28;5027508;28;20202;-61
2022/03/20 00:39:17;;;;;;;31.88;18.67;;;;;;;-1.86;83.78;98480.97;5025745;28;20099;-60
2022/03/20 00:41:44;;;;;;;32.05;18.67;;;;;;;-1.89;83.82;98481.25;5028708;28;20046;-62
2022/03/20 00:44:11;;;;;;;32.80;17.38;;;;;;;-1.73;83.98;98484.13;5026849;28;20033;-62
2022/03/20 00:46:37;;;;;;;33.58;19.90;;;;;;;-1.70;83.08;98472.38;5026860;28;20041;-60
2022/03/20 00:49:05;;;;;;;33.97;18.13;;;;;;;-1.74;83.72;98482.47;5029537;28;20500;-60
2022/03/20 00:51:33;;;;;;;28.55;17.40;;;;;;;-1.74;83.18;98477.16;5025519;28;20049;-61
2022/03/20 00:53:59;;;;;;;32.75;17.33;;;;;;;-1.63;82.99;98480.59;5022429;28;20042;-62
2022/03/20 00:56:26;;;;;;;31.70;17.50;;;;;;;-1.71;82.70;98483.97;5026569;28;20045;-62
2022/03/20 00:58:53;;;;;;;29.17;16.15;;;;;;;-1.68;82.93;98474.88;5026010;28;20049;-63
2022/03/20 01:01:20;;;;;;;29.40;17.45;;;;;;;-1.65;82.95;98480.75;5026061;28;20049;-61
2022/03/20 01:03:47;;;;;;;31.27;17.65;;;;;;;-1.68;82.98;98470.41;5025796;28;20533;-61
2022/03/20 01:06:14;;;;;;;31.60;17.48;;;;;;;-1.49;83.14;98471.31;5027104;28;20045;-60
2022/03/20 01:08:42;;;;;;;32.38;18.02;;;;;;;-1.50;82.37;98472.28;5025574;28;20042;-62
2022/03/20 01:11:09;;;;;;;32.63;17.70;;;;;;;-1.59;82.30;98468.69;5026029;28;20520;-63
2022/03/20 01:13:35;;;;;;;31.85;17.88;;;;;;;-1.52;82.18;98463.66;5025620;28;20037;-63
2022/03/20 01:16:02;;;;;;;27.33;16.15;;;;;;;-1.49;81.81;98464.19;5027827;28;20045;-60
2022/03/20 01:18:29;;;;;;;27.42;16.92;;;;;;;-1.49;81.84;98468.66;5024903;28;20049;-62
2022/03/20 01:20:55;;;;;;;28.92;17.25;;;;;;;-1.61;82.05;98465.34;5026946;28;20044;-62
2022/03/20 01:23:22;;;;;;;30.58;16.75;;;;;;;-1.69;82.26;98463.44;5025282;28;20041;-60
2022/03/20 01:25:50;;;;;;;29.77;16.45;;;;;;;-1.72;82.55;98453.94;5023741;28;20201;-61
2022/03/20 01:28:18;;;;;;;33.22;19.08;;;;;;;-1.64;82.16;98452.38;5026153;28;20076;-61
2022/03/20 01:30:47;;;;;;;29.63;16.67;;;;;;;-1.67;82.88;98458.00;5025071;28;20041;-60
2022/03/20 01:33:15;;;;;;;27.98;16.13;;;;;;;-1.68;82.38;98462.44;5037362;28;20539;-60
2022/03/20 01:35:45;;;;;;;28.77;16.48;;;;;;;-1.61;82.55;98458.25;5023488;28;20053;-61
2022/03/20 01:38:18;;;;;;;30.75;15.90;;;;;;;-1.53;81.87;98451.34;5024782;28;20041;-60
2022/03/20 01:40:46;;;;;;;30.73;17.00;;;;;;;-1.49;82.75;98439.44;5025796;28;20049;-60
2022/03/20 01:43:13;;;;;;;31.02;17.42;;;;;;;-1.62;81.94;98440.59;5023950;28;20044;-61
2022/03/20 01:45:40;;;;;;;29.20;17.63;;;;;;;-1.61;82.00;98436.13;5023334;28;20041;-62
2022/03/20 01:48:07;;;;;;;29.00;16.27;;;;;;;-1.55;82.09;98430.22;5026442;28;20033;-61
2022/03/20 01:50:33;;;;;;;28.13;16.77;;;;;;;-1.45;81.32;98430.19;5025239;28;20064;-61
2022/03/20 01:53:06;;;;;;;30.05;15.10;;;;;;;-1.48;81.15;98423.34;5023862;28;20536;-61
2022/03/20 01:55:32;;;;;;;31.73;16.30;;;;;;;-1.20;80.83;98411.84;5024115;28;20049;-62
2022/03/20 01:57:59;;;;;;;27.45;15.13;;;;;;;-1.27;80.07;98414.28;5025613;28;20060;-62
2022/03/20 02:00:28;;;;;;;26.55;16.20;;;;;;;-1.37;80.30;98414.34;5025129;28;20072;-60
2022/03/20 02:02:55;;;;;;;27.92;15.32;;;;;;;-1.41;80.59;98420.94;5024375;28;20575;-60
2022/03/20 02:05:22;;;;;;;27.58;15.48;;;;;;;-1.60;81.38;98427.19;5026064;28;20049;-62
2022/03/20 02:07:49;;;;;;;28.70;16.88;;;;;;;-1.76;82.58;98419.84;5023099;28;20053;-61
2022/03/20 02:10:16;;;;;;;28.85;16.00;;;;;;;-1.77;82.35;98432.28;5032496;28;20095;-62
2022/03/20 02:12:43;;;;;;;28.05;16.20;;;;;;;-1.62;81.89;98432.63;5025011;28;20068;-60
2022/03/20 02:15:14;;;;;;;27.25;16.00;;;;;;;-1.41;81.39;98430.75;5023413;28;20175;-61
2022/03/20 02:17:44;;;;;;;29.95;17.33;;;;;;;-1.40;80.78;98422.59;5024377;28;20042;-61
2022/03/20 02:20:12;;;;;;;29.00;16.77;;;;;;;-1.40;80.90;98427.09;5025137;28;20537;-60
2022/03/20 02:22:43;;;;;;;26.98;16.45;;;;;;;-1.40;81.26;98419.13;5023419;28;20053;-59
2022/03/20 02:25:14;;;;;;;30.10;17.60;;;;;;;-1.38;80.78;98417.13;5025399;28;20045;-60
2022/03/20 02:27:43;;;;;;;29.33;15.13;;;;;;;-1.37;80.34;98410.84;5024501;28;20041;-60
2022/03/20 02:30:16;;;;;;;23.15;13.70;;;;;;;-1.34;80.25;98407.88;5024206;28;20048;-61
2022/03/20 02:32:45;;;;;;;32.35;16.98;;;;;;;-1.45;80.81;98396.50;5023689;28;20049;-61
2022/03/20 02:35:14;;;;;;;25.67;16.08;;;;;;;-1.54;81.14;98397.38;5025010;28;20672;-62
2022/03/20 02:37:50;;;;;;;35.65;19.45;;;;;;;-1.68;81.08;98384.59;5026103;28;20542;-60
2022/03/20 02:40:19;;;;;;;27.40;14.73;;;;;;;-1.67;81.17;98386.28;5024260;28;20057;-62
2022/03/20 02:42:48;;;;;;;26.55;16.33;;;;;;;-1.72;81.38;98384.06;5032384;28;20045;-62
2022/03/20 02:45:20;;;;;;;32.20;16.20;;;;;;;-1.62;81.21;98391.97;5009464;28;20049;-61
2022/03/20 02:47:47;;;;;;;;;;;;;;;-1.31;79.88;98392.50;5025281;28;20531;-61
2022/03/20 02:50:20;;;;;;;26.60;13.85;;;;;;;-1.44;80.51;98392.00;5021845;28;19921;-62
2022/03/20 02:52:48;;;;;;;25.98;15.15;;;;;;;-1.53;79.85;98384.94;5023619;28;20045;-62
2022/03/20 02:55:36;;;;;;;25.33;15.38;;;;;;;-1.58;80.53;98388.88;5028740;28;20041;-62
2022/03/20 02:58:05;;;;;;;27.50;14.18;;;;;;;-1.50;79.46;98384.63;5019210;28;20489;-62
2022/03/20 03:00:33;;;;;;;28.10;16.08;;;;;;;-1.49;79.92;98384.50;5019404;28;20064;-62
2022/03/20 03:03:02;;;;;;;27.10;15.45;;;;;;;-1.46;79.81;98384.19;5023925;28;20595;-62
2022/03/20 03:05:30;;;;;;;29.00;15.90;;;;;;;-1.67;80.13;98386.28;5023945;28;20497;-62
2022/03/20 03:11:01;;;;;;;25.58;14.93;;;;;;;-1.52;80.53;98395.41;5024223;28;20496;-60
2022/03/20 03:13:37;;;;;;;26.48;14.65;;;;;;;-1.36;79.66;98389.44;5023806;28;20049;-60
2022/03/20 03:16:13;;;;;;;23.67;15.55;;;;;;;-1.35;79.40;98390.28;5032262;28;20054;-62
2022/03/20 03:18:44;;;;;;;24.98;15.07;;;;;;;-1.35;79.77;98400.91;5028463;28;20050;-61
2022/03/20 03:21:16;;;;;;;25.48;15.35;;;;;;;-1.39;79.09;98394.22;5027516;28;20087;-61
2022/03/20 03:23:44;;;;;;;26.77;15.70;;;;;;;-1.42;79.80;98405.97;5023578;28;20049;-60
2022/03/20 03:26:11;;;;;;;29.70;17.33;;;;;;;-1.42;79.63;98411.28;5026902;28;20517;-60
2022/03/20 03:28:38;;;;;;;32.17;16.40;;;;;;;-1.42;80.22;98410.44;5028856;28;20413;-61
2022/03/20 03:31:09;;;;;;;25.67;14.80;;;;;;;-1.38;80.23;98406.50;5028092;28;20545;-62
2022/03/20 03:35:41;;;;;;;26.23;14.15;;;;;;;-1.13;79.22;98404.09;5035645;28;20075;-60
2022/03/20 03:36:25;;;;;;;25.17;15.10;;;;;;;-1.23;79.68;98404.16;5025221;28;20134;-62
2022/03/20 03:38:52;;;;;;;25.75;14.93;;;;;;;-1.34;79.49;98406.06;5027100;28;20053;-62
2022/03/20 03:41:19;;;;;;;27.42;15.77;;;;;;;-1.28;79.71;98409.97;5026142;28;20330;-60
2022/03/20 03:43:46;;;;;;;23.48;14.73;;;;;;;-1.31;79.86;98402.28;5028589;28;20045;-62
2022/03/20 03:46:12;;;;;;;23.73;14.80;;;;;;;-1.27;79.52;98401.00;5027705;28;20033;-60
2022/03/20 03:48:39;;;;;;;33.00;17.23;;;;;;;-1.23;79.13;98405.03;5027083;28;20037;-60
2022/03/20 03:51:06;;;;;;;27.00;14.05;;;;;;;-1.20;79.25;98403.88;5026792;28;20103;-63
2022/03/20 03:53:32;;;;;;;28.90;17.40;;;;;;;-1.04;78.17;98397.88;5016162;28;20041;-61
2022/03/20 03:55:59;;;;;;;32.50;14.73;;;;;;;-1.12;79.33;98400.47;5026190;28;20743;-62
2022/03/20 03:58:26;;;;;;;26.23;15.48;;;;;;;-1.11;79.13;98402.97;5026926;28;20053;-61
2022/03/20 04:00:52;;;;;;;30.27;16.08;;;;;;;-0.98;78.23;98405.25;5028759;28;20091;-61
2022/03/20 04:03:19;;;;;;;30.35;15.07;;;;;;;-0.83;79.46;98402.91;5026978;28;20128;-60
2022/03/20 04:05:47;;;;;;;26.40;14.13;;;;;;;-0.68;76.64;98402.34;5025617;28;20053;-61
2022/03/20 04:08:15;;;;;;;25.52;13.73;;;;;;;-0.76;77.09;98397.81;5028004;28;20045;-61
2022/03/20 04:10:42;;;;;;;26.77;15.57;;;;;;;-0.92;77.21;98388.69;5027363;28;20060;-62
2022/03/20 04:13:08;;;;;;;21.42;13.05;;;;;;;-1.19;78.62;98398.41;5027585;28;20045;-63
2022/03/20 04:15:38;;;;;;;24.20;14.07;;;;;;;-1.34;79.60;98391.94;5025483;28;20053;-62
2022/03/20 04:18:05;;;;;;;25.33;13.10;;;;;;;-1.31;79.87;98402.28;5027445;28;20572;-60
2022/03/20 04:20:32;;;;;;;25.27;14.85;;;;;;;-1.25;79.41;98414.94;5026853;28;20049;-60
2022/03/20 04:25:44;;;;;;;23.05;13.13;;;;;;;-1.16;78.39;98415.03;5023231;28;20322;-60
2022/03/20 04:28:11;;;;;;;24.92;14.68;;;;;;;-1.11;79.40;98404.81;5027714;28;20045;-60
2022/03/20 04:30:37;;;;;;;26.20;14.23;;;;;;;-1.15;77.71;98409.56;5027863;28;20045;-62
2022/03/20 04:33:04;;;;;;;26.02;14.45;;;;;;;-1.22;78.44;98411.19;5035800;28;20045;-60
2022/03/20 04:35:31;;;;;;;32.97;15.05;;;;;;;-1.16;78.30;98407.91;5046592;28;20045;-61
2022/03/20 04:38:01;;;;;;;25.50;14.30;;;;;;;-1.22;78.09;98397.91;5034180;28;20041;-61
2022/03/20 04:40:28;;;;;;;24.30;15.35;;;;;;;-1.05;77.34;98389.09;5027905;28;20080;-60
2022/03/20 04:42:56;;;;;;;26.15;14.27;;;;;;;-1.32;78.82;98401.44;5032007;28;20232;-61
2022/03/20 04:45:24;;;;;;;25.05;14.45;;;;;;;-1.18;78.59;98400.06;5019814;28;20060;-62
2022/03/20 04:58:50;;;;;;;23.83;14.05;;;;;;;-0.57;76.57;98406.59;5026002;28;20598;-61
2022/03/20 05:01:17;;;;;;;26.83;13.20;;;;;;;-0.37;75.53;98417.03;5026533;28;20051;-62
2022/03/20 05:03:44;;;;;;;22.33;14.13;;;;;;;-0.39;76.13;98417.19;5023642;28;20056;-61
2022/03/20 05:06:10;;;;;;;24.17;13.75;;;;;;;-0.12;74.36;98409.22;5026554;28;20076;-62
2022/03/20 05:08:37;;;;;;;26.55;15.90;;;;;;;-0.29;74.89;98425.09;5026379;28;20053;-62
2022/03/20 05:13:49;;;;;;;28.52;15.27;;;;;;;-0.13;73.27;98411.03;5026609;28;20045;-60
2022/03/20 05:16:17;;;;;;;24.73;14.18;;;;;;;0.12;71.89;98406.69;5039093;28;20045;-62
2022/03/20 05:18:44;;;;;;;27.65;15.70;;;;;;;0.36;70.36;98407.78;5027264;28;20500;-62
2022/03/20 05:21:11;;;;;;;24.52;14.45;;;;;;;0.06;72.99;98404.66;5026524;28;20053;-61
2022/03/20 05:23:39;;;;;;;25.42;14.32;;;;;;;0.40;69.95;98415.47;5025751;28;20035;-59
2022/03/20 05:26:05;;;;;;;25.95;14.77;;;;;;;0.76;68.81;98416.09;5021853;28;20107;-60
2022/03/20 05:28:33;;;;;;;24.13;13.77;;;;;;;0.66;71.17;98410.03;5025505;28;20132;-61
2022/03/20 05:31:00;;;;;;;25.27;14.88;;;;;;;0.76;68.64;98424.09;5023937;28;20045;-60
2022/03/20 05:33:29;;;;;;;21.35;13.52;;;;;;;0.82;68.68;98414.59;5033030;28;20145;-60
2022/03/20 05:35:56;;;;;;;23.42;14.43;;;;;;;0.81;69.33;98420.91;5022697;28;20050;-60
2022/03/20 05:38:23;;;;;;;27.23;14.70;;;;;;;0.92;69.56;98417.09;5020199;28;21625;-59
2022/03/20 05:41:43;;;;;;;23.27;13.95;;;;;;;1.12;67.23;98415.00;5019745;28;20042;-60
2022/03/20 05:43:37;;;;;;;26.35;13.65;;;;;;;1.21;68.03;98423.81;5017942;28;20447;-60
2022/03/20 05:46:03;;;;;;;25.40;14.38;;;;;;;1.34;66.94;98426.00;5018669;28;20038;-60
2022/03/20 05:48:30;;;;;;;25.65;14.35;;;;;;;1.55;66.39;98428.16;5019126;28;20059;-61
2022/03/20 05:50:57;;;;;;;28.50;15.57;;;;;;;1.66;67.38;98426.16;5025669;28;20474;-61
2022/03/20 05:53:23;;;;;;;25.67;14.50;;;;;;;1.63;68.07;98435.34;5021764;28;20057;-60
2022/03/20 05:58:35;;;;;;;25.67;15.27;;;;;;;1.80;66.55;98438.81;5036143;28;20041;-61
2022/03/20 06:01:02;;;;;;;24.45;15.38;;;;;;;1.79;67.83;98431.81;5023049;28;20037;-61
2022/03/20 06:03:31;;;;;;;29.58;16.80;;;;;;;1.81;65.94;98440.47;5022109;28;20057;-60
2022/03/20 06:05:58;;;;;;;27.42;15.07;;;;;;;1.94;66.54;98442.66;5022424;28;20049;-61
2022/03/20 06:08:24;;;;;;;29.75;15.90;;;;;;;2.05;66.71;98437.94;5023595;28;20049;-59
2022/03/20 06:10:51;;;;;;;27.75;16.13;;;;;;;2.16;66.12;98442.09;5012392;28;20484;-60
2022/03/20 06:13:18;;;;;;;27.67;16.42;;;;;;;2.36;65.95;98431.03;5024341;28;20064;-61
2022/03/20 06:15:46;;;;;;;29.48;15.95;;;;;;;2.45;65.43;98443.34;5023853;28;20041;-61
2022/03/20 06:18:13;;;;;;;25.23;15.63;;;;;;;2.60;64.99;98446.13;5023341;28;20046;-61
2022/03/20 06:20:39;;;;;;;23.83;14.85;;;;;;;2.75;63.49;98448.06;5025136;28;20045;-61
2022/03/20 06:23:06;;;;;;;27.77;14.80;;;;;;;2.70;64.03;98451.28;5024331;28;20075;-60
2022/03/20 06:25:33;;;;;;;27.92;16.65;;;;;;;2.67;64.61;98455.13;5024129;28;20128;-61
2022/03/20 06:28:02;;;;;;;25.67;15.07;;;;;;;2.76;64.54;98447.88;5024735;28;20049;-60
2022/03/20 06:30:33;;;;;;;27.70;15.75;;;;;;;2.83;63.76;98456.03;5024785;28;20044;-60
2022/03/20 06:33:02;;;;;;;27.27;17.10;;;;;;;2.79;63.92;98463.59;5023916;28;20056;-60
2022/03/20 06:35:29;;;;;;;29.02;17.60;;;;;;;2.93;64.09;98464.69;5024269;28;20107;-61
2022/03/20 06:37:56;;;;;;;28.40;17.60;;;;;;;3.12;63.98;98468.78;5024381;28;20051;-60
2022/03/20 06:40:23;;;;;;;27.85;17.90;;;;;;;3.15;63.35;98470.25;5023300;28;20048;-62
2022/03/20 06:42:50;;;;;;;29.73;17.30;;;;;;;3.14;63.15;98473.94;5025028;28;20476;-61
2022/03/20 06:45:19;;;;;;;25.48;15.77;;;;;;;3.20;63.54;98477.75;5022197;28;20041;-60
2022/03/20 06:47:47;;;;;;;26.98;17.05;;;;;;;3.30;63.09;98485.53;5023724;28;20045;-59
2022/03/20 06:50:14;;;;;;;25.73;16.63;;;;;;;3.35;63.09;98480.47;5020876;28;20049;-62
2022/03/20 06:52:41;;;;;;;26.95;14.95;;;;;;;3.27;63.37;98480.56;5021212;28;20045;-60
2022/03/20 06:55:12;;;;;;;26.48;16.35;;;;;;;3.35;63.34;98486.69;5023391;28;20718;-61
2022/03/20 06:57:41;;;;;;;30.45;19.35;;;;;;;3.35;63.47;98480.47;5024201;28;20146;-61
2022/03/20 07:00:09;;;;;;;28.00;17.42;;;;;;;3.34;63.75;98477.00;5027241;28;20129;-62
2022/03/20 07:02:47;;;;;;;26.20;16.80;;;;;;;3.50;63.70;98476.03;5029142;28;20057;-60
2022/03/20 07:05:14;;;;;;;27.40;17.75;;;;;;;3.58;62.86;98472.44;5027073;28;20513;-61
2022/03/20 07:07:40;;;;;;;31.25;17.30;;;;;;;3.62;63.19;98470.28;5019469;28;20111;-60
2022/03/20 07:10:08;;;;;;;29.08;17.35;;;;;;;3.79;63.51;98473.63;5019706;28;20116;-61
2022/03/20 07:12:34;;;;;;;32.03;18.83;;;;;;;3.81;63.15;98484.16;5022306;28;20049;-60
2022/03/20 07:15:01;;;;;;;28.23;17.63;;;;;;;3.86;62.74;98487.97;5024947;28;20045;-63
2022/03/20 07:17:28;;;;;;;31.38;17.33;;;;;;;3.97;63.10;98492.06;5022244;28;20045;-60
2022/03/20 07:19:55;;;;;;;28.52;19.40;;;;;;;4.04;62.39;98502.91;5021839;28;20543;-60
2022/03/20 07:22:23;;;;;;;33.03;17.50;;;;;;;4.16;62.17;98500.59;5021822;28;20087;-62
2022/03/20 07:24:50;;;;;;;26.25;18.35;;;;;;;4.25;61.82;98504.03;5022064;28;20050;-61
2022/03/20 07:30:04;;;;;;;27.27;17.20;;;;;;;4.45;61.70;98503.53;5022181;28;20454;-60
2022/03/20 07:32:30;;;;;;;30.38;18.70;;;;;;;4.65;61.01;98495.75;5027132;28;20049;-61
2022/03/20 07:34:57;;;;;;;29.33;17.13;;;;;;;4.98;60.41;98506.09;5028011;28;20038;-61
2022/03/20 07:37:26;;;;;;;27.27;16.23;;;;;;;5.27;58.90;98506.19;5031767;28;20037;-60
2022/03/20 07:39:53;;;;;;;32.10;18.10;;;;;;;5.37;58.42;98514.78;5020410;28;20053;-60
2022/03/20 07:42:20;;;;;;;28.95;17.67;;;;;;;5.50;58.89;98515.94;5021314;28;20049;-60
2022/03/20 07:44:48;;;;;;;28.08;16.33;;;;;;;5.61;57.47;98507.38;5019952;28;20048;-61
2022/03/20 07:47:19;;;;;;;26.15;17.13;;;;;;;5.58;58.55;98515.81;5020803;28;20076;-61
2022/03/20 07:49:48;;;;;;;32.10;19.02;;;;;;;5.58;57.45;98521.19;5021297;28;20049;-60
2022/03/20 07:52:15;;;;;;;28.85;16.95;;;;;;;5.62;57.20;98516.25;5020910;28;20041;-62
2022/03/20 07:54:42;;;;;;;29.00;16.13;;;;;;;5.80;56.18;98515.81;5021223;28;20053;-62
2022/03/20 07:57:09;;;;;;;29.55;18.40;;;;;;;5.75;56.45;98515.56;5021210;28;20715;-62
2022/03/20 07:59:36;;;;;;;29.55;16.45;;;;;;;5.84;56.42;98509.88;5017081;28;20037;-61
2022/03/20 08:02:03;;;;;;;28.63;16.77;;;;;;;5.93;55.82;98515.94;5013734;28;20947;-66
2022/03/20 08:04:31;;;;;;;30.52;17.52;;;;;;;5.97;55.76;98511.03;5024337;28;20103;-66
2022/03/20 08:06:58;;;;;;;29.45;16.63;;;;;;;6.20;55.87;98509.97;5023807;28;20049;-64
2022/03/20 08:09:27;;;;;;;31.00;17.60;;;;;;;6.45;55.45;98515.72;5023735;28;20657;-62
2022/03/20 08:11:55;;;;;;;28.48;17.83;;;;;;;6.77;56.37;98515.31;5025138;28;20053;-61
2022/03/20 08:14:25;;;;;;;26.88;16.00;;;;;;;7.00;54.36;98506.94;5022430;28;20099;-65
2022/03/20 08:16:51;;;;;;;24.95;16.13;;;;;;;7.09;54.49;98507.59;5028868;28;20042;-66
2022/03/20 08:19:21;;;;;;;31.65;18.38;;;;;;;7.16;54.52;98508.44;5023289;28;20536;-60
2022/03/20 08:21:49;;;;;;;28.23;18.63;;;;;;;7.14;51.99;98507.81;5025971;28;20662;-62
2022/03/20 08:24:17;;;;;;;27.35;15.35;;;;;;;7.20;52.86;98519.66;5035739;28;20050;-65
2022/03/20 08:26:44;;;;;;;27.10;15.63;;;;;;;7.28;51.87;98521.31;5024695;28;20429;-63
2022/03/20 08:29:13;;;;;;;25.45;16.83;;;;;;;7.31;51.40;98510.16;5021583;28;20513;-62
2022/03/20 08:31:47;;;;;;;29.00;18.52;;;;;;;7.36;51.22;98520.31;5024445;28;20058;-60
2022/03/20 08:34:16;;;;;;;27.00;16.40;;;;;;;7.40;51.35;98522.41;5028973;28;20042;-61
2022/03/20 08:36:44;;;;;;;29.08;15.88;;;;;;;7.39;50.88;98528.00;5034326;28;20432;-62
2022/03/20 08:39:11;;;;;;;27.05;16.90;;;;;;;7.48;51.79;98534.84;5020575;28;20459;-62
2022/03/20 08:41:37;;;;;;;25.42;14.70;;;;;;;7.60;50.76;98536.97;5021682;28;20523;-63
2022/03/20 08:44:05;;;;;;;26.85;14.93;;;;;;;7.71;50.40;98528.28;5022083;28;20500;-63
2022/03/20 08:46:32;;;;;;;26.77;16.70;;;;;;;7.77;50.24;98532.00;5017001;28;20038;-62
2022/03/20 08:49:03;;;;;;;27.27;17.02;;;;;;;7.85;50.98;98531.81;5021648;28;20096;-62
2022/03/20 08:51:31;;;;;;;24.88;13.88;;;;;;;8.01;50.54;98541.41;5024207;28;20061;-62
2022/03/20 08:54:01;;;;;;;26.45;17.85;;;;;;;8.16;50.01;98535.81;5024860;28;20045;-62
2022/03/20 08:56:28;;;;;;;25.38;16.10;;;;;;;8.33;50.01;98538.06;5022739;28;20041;-62
2022/03/20 08:58:56;;;;;;;28.48;15.07;;;;;;;8.51;49.28;98537.44;5027223;28;20059;-62
2022/03/20 09:01:24;;;;;;;24.05;16.67;;;;;;;8.67;48.61;98548.88;5030767;28;20433;-63
2022/03/20 09:03:51;;;;;;;23.63;16.40;;;;;;;8.80;48.49;98545.28;5023610;28;20561;-62
2022/03/20 09:06:19;;;;;;;25.70;14.27;;;;;;;8.88;48.22;98549.66;5023837;28;20176;-62
2022/03/20 09:08:46;;;;;;;26.60;15.02;;;;;;;8.88;48.35;98555.88;5022924;28;20060;-62
2022/03/20 09:11:13;;;;;;;22.38;14.20;;;;;;;8.84;48.44;98552.78;5016395;28;20605;-62
2022/03/20 09:13:40;;;;;;;24.35;15.90;;;;;;;8.94;47.93;98562.31;5022230;28;20045;-63
2022/03/20 09:19:07;;;;;;;25.45;15.98;;;;;;;9.46;46.64;98556.09;5013558;28;20083;-62
2022/03/20 09:21:36;;;;;;;26.23;17.23;;;;;;;9.20;47.05;98555.16;5017349;28;20156;-63
2022/03/20 09:24:05;;;;;;;22.10;15.95;;;;;;;9.08;47.48;98550.44;5022214;28;20576;-64
2022/03/20 09:26:31;;;;;;;25.60;16.35;;;;;;;8.96;47.84;98563.75;5021781;28;20038;-63
2022/03/20 09:28:58;;;;;;;22.50;14.70;;;;;;;9.18;47.49;98554.56;5022384;28;20061;-63
2022/03/20 09:31:27;;;;;;;23.10;14.15;;;;;;;9.33;47.75;98554.28;5024406;28;20049;-63
2022/03/20 09:33:54;;;;;;;25.17;15.70;;;;;;;9.44;47.38;98560.88;5033310;28;20053;-62
2022/03/20 09:36:21;;;;;;;23.65;15.20;;;;;;;9.47;47.66;98569.38;5021250;28;20040;-62
2022/03/20 09:38:48;;;;;;;26.52;13.93;;;;;;;9.52;48.50;98567.91;5022242;28;20144;-63
2022/03/20 09:41:15;;;;;;;28.50;15.20;;;;;;;9.45;49.16;98571.50;5022934;28;20111;-62
2022/03/20 09:43:44;;;;;;;25.75;15.68;;;;;;;9.52;49.40;98573.31;5017386;28;20056;-62
2022/03/20 09:46:20;;;;;;;26.40;17.58;;;;;;;9.54;49.64;98580.16;5020382;28;20044;-62
2022/03/20 09:48:47;;;;;;;25.08;15.63;;;;;;;9.59;49.91;98588.47;5019484;28;20045;-62
2022/03/20 09:51:14;;;;;;;25.13;15.05;;;;;;;9.56;49.95;98593.47;5015890;28;20049;-62
2022/03/20 09:53:41;;;;;;;23.48;14.18;;;;;;;9.78;50.41;98593.16;5022195;28;20050;-63
2022/03/20 09:56:11;;;;;;;25.02;15.02;;;;;;;9.96;50.00;98593.28;5022960;28;20038;-62
2022/03/20 09:58:38;;;;;;;24.08;16.08;;;;;;;9.70;50.13;98597.75;5020490;28;20041;-63
2022/03/20 10:01:05;;;;;;;25.45;14.45;;;;;;;9.78;49.57;98601.28;5020905;28;20095;-62
2022/03/20 10:03:33;;;;;;;24.08;15.57;;;;;;;10.06;49.53;98605.50;5020051;28;20045;-63
2022/03/20 10:06:02;;;;;;;23.48;16.80;;;;;;;9.83;50.17;98609.56;5020207;28;20049;-62
2022/03/20 10:08:30;;;;;;;28.08;16.15;;;;;;;9.58;50.96;98605.72;5021401;28;20263;-61
2022/03/20 10:11:16;;;;;;;23.77;13.65;;;;;;;9.83;49.87;98607.69;5019241;28;20103;-62
2022/03/20 10:14:07;;;;;;;29.50;14.15;;;;;;;9.98;50.29;98606.56;5020033;28;20060;-61
2022/03/20 10:16:42;;;;;;;24.15;13.73;;;;;;;10.12;50.13;98599.19;5017876;28;20115;-62
2022/03/20 10:19:24;;;;;;;23.00;15.50;;;;;;;10.50;51.05;98601.03;5023605;28;20045;-63
2022/03/20 10:21:57;;;;;;;25.92;12.90;;;;;;;10.63;49.80;98597.38;5020366;28;20132;-61
2022/03/20 10:24:25;;;;;;;24.73;14.88;;;;;;;10.64;50.48;98593.63;5022730;28;20110;-62
2022/03/20 10:27:02;;;;;;;23.30;13.90;;;;;;;10.68;50.16;98585.88;5022140;28;20060;-62
2022/03/20 10:29:31;;;;;;;23.73;14.20;;;;;;;10.95;50.34;98582.91;5021605;28;20041;-62
2022/03/20 10:32:08;;;;;;;22.00;13.43;;;;;;;11.36;49.50;98587.88;5022389;28;20057;-63
2022/03/20 10:34:55;;;;;;;19.88;13.80;;;;;;;11.48;49.12;98586.06;5022846;28;20120;-61
2022/03/20 10:37:46;;;;;;;25.80;12.70;;;;;;;11.79;48.47;98586.09;5021355;28;20038;-63
2022/03/20 10:40:19;;;;;;;23.90;13.70;;;;;;;11.99;47.84;98584.97;5021739;28;20042;-61
2022/03/20 10:43:09;;;;;;;26.60;13.45;;;;;;;12.07;47.29;98581.94;5021657;28;20436;-63
2022/03/20 10:46:00;;;;;;;23.95;13.32;;;;;;;12.09;46.93;98572.50;5024794;28;20048;-62
2022/03/20 10:48:33;;;;;;;20.67;12.55;;;;;;;12.17;46.87;98578.69;5033300;28;20044;-61
2022/03/20 10:51:01;;;;;;;22.17;12.52;;;;;;;12.26;47.66;98585.44;5019965;28;20057;-62
2022/03/20 10:53:27;;;;;;;27.55;13.95;;;;;;;12.20;47.36;98572.78;5022200;28;20064;-61
2022/03/20 10:56:15;;;;;;;21.00;12.43;;;;;;;12.39;46.97;98573.53;5021868;28;20069;-62
2022/03/20 10:58:42;;;;;;;19.75;11.68;;;;;;;12.70;46.28;98578.84;5023392;28;20049;-62
2022/03/20 11:01:09;;;;;;;21.67;11.45;;;;;;;12.60;46.15;98574.84;5027536;28;20049;-62
2022/03/20 11:03:37;;;;;;;20.42;11.95;;;;;;;12.84;45.48;98585.72;5019894;28;20505;-61
2022/03/20 11:06:08;;;;;;;17.40;10.60;;;;;;;13.42;44.87;98578.78;5019805;28;20045;-63
2022/03/20 11:08:38;;;;;;;15.93;10.10;;;;;;;13.44;44.10;98579.34;5032556;28;20045;-63
2022/03/20 11:11:08;;;;;;;19.40;10.32;;;;;;;13.22;43.88;98578.09;5022050;28;20468;-61
2022/03/20 11:13:38;;;;;;;20.80;9.57;;;;;;;13.85;42.70;98579.34;5022390;28;20056;-63
2022/03/20 11:16:05;;;;;;;16.08;9.93;;;;;;;13.84;42.49;98575.81;5026625;28;20045;-62
2022/03/20 11:18:33;;;;;;;20.35;10.57;;;;;;;13.29;42.37;98574.41;5022132;28;20049;-61
2022/03/20 11:21:04;;;;;;;17.10;9.43;;;;;;;13.76;42.10;98570.75;5020214;28;20037;-63
2022/03/20 11:23:32;;;;;;;20.33;10.10;;;;;;;13.75;42.52;98575.38;5022283;28;20049;-61
2022/03/20 11:26:01;;;;;;;15.40;9.20;;;;;;;13.87;40.81;98577.22;5022217;28;20052;-62
2022/03/20 11:28:35;;;;;;;16.67;9.90;;;;;;;13.59;40.99;98578.84;5019547;28;20263;-62
2022/03/20 11:31:02;;;;;;;14.98;9.52;;;;;;;13.28;42.45;98584.47;5020742;28;20049;-61
2022/03/20 11:33:29;;;;;;;17.88;9.40;;;;;;;13.30;42.11;98582.34;5022263;28;21095;-62
2022/03/20 11:36:00;;;;;;;14.10;9.20;;;;;;;13.35;42.66;98582.44;5022892;28;20045;-61
2022/03/20 11:38:27;;;;;;;17.58;10.00;;;;;;;13.28;42.05;98581.75;5025804;28;20045;-61
2022/03/20 11:41:17;;;;;;;15.10;9.35;;;;;;;13.74;41.58;98571.00;5035370;28;20052;-63
2022/03/20 11:44:06;;;;;;;14.25;8.75;;;;;;;13.69;41.84;98570.91;5023516;28;20101;-61
2022/03/20 11:46:34;;;;;;;16.88;7.75;;;;;;;14.01;40.75;98573.09;5027262;28;20045;-61
2022/03/20 11:49:13;;;;;;;14.35;8.15;;;;;;;14.12;40.86;98562.41;5023992;28;20049;-61
2022/03/20 11:52:01;;;;;;;17.67;8.77;;;;;;;14.56;39.71;98559.84;5026882;28;20052;-62
2022/03/20 11:54:49;;;;;;;16.25;7.85;;;;;;;15.54;38.40;98565.00;5025790;28;20061;-63
2022/03/20 11:57:42;;;;;;;13.25;8.13;;;;;;;15.36;37.18;98563.41;5025221;28;20054;-63
2022/03/20 12:00:14;;;;;;;12.75;7.75;;;;;;;15.43;37.01;98558.59;5021613;28;20119;-62